Terminal Aerodrome Forecast
Issued by NWS

Home | Current Version | Previous Version | Text Only | Print | Product List | Glossary On
Versions: 1 2 3 4 5 6 7 8 9 10 11 12 13 14
000
FTUS45 KRIW 042327
TAFCOD
TAF
KCOD 042327Z 0500/0524 01011G18KT P6SM VCTS SCT080CB BKN110
     FM050700 25007KT P6SM SCT100
     FM051700 16008KT P6SM FEW060
     FM052100 VRB15G25KT P6SM VCTS SCT100CB
      AMD LTD TO CLD VIS AND WIND=

USA.gov is the U.S. government's official web portal to all federal, state and local government web resources and services.